createdAt,value
2024-03-16T00:00:11.633Z,2.10
2024-03-16T00:02:39.894Z,1.50
2024-03-16T00:05:07.818Z,3.03
2024-03-16T00:07:35.612Z,0.90
2024-03-16T00:10:03.723Z,1.90
2024-03-16T00:12:31.903Z,1.70
2024-03-16T00:14:59.703Z,0.97
2024-03-16T00:17:27.483Z,0.90
2024-03-16T00:19:56.202Z,0.83
2024-03-16T00:22:23.937Z,0.70
2024-03-16T00:24:51.814Z,0.80
2024-03-16T00:27:20.131Z,0.90
2024-03-16T00:29:48.599Z,1.17
2024-03-16T00:32:16.371Z,0.77
2024-03-16T00:34:44.127Z,1.07
2024-03-16T00:37:11.952Z,0.70
2024-03-16T00:39:41.142Z,1.80
2024-03-16T00:42:10.917Z,0.80
2024-03-16T00:44:38.725Z,0.80
2024-03-16T00:47:06.600Z,0.70
2024-03-16T00:49:35.849Z,0.80
2024-03-16T00:52:03.726Z,0.70
2024-03-16T00:54:31.522Z,0.70
2024-03-16T00:56:59.374Z,0.70
2024-03-16T00:59:29.293Z,0.77
2024-03-16T01:01:57.146Z,0.70
2024-03-16T01:04:25.641Z,0.60
2024-03-16T01:06:53.718Z,0.70
2024-03-16T01:09:23.366Z,0.70
2024-03-16T01:11:51.347Z,0.70
2024-03-16T01:14:19.072Z,0.70
2024-03-16T01:16:46.876Z,0.80
2024-03-16T01:19:15.098Z,0.60
2024-03-16T01:21:43.562Z,0.73
2024-03-16T01:24:11.357Z,0.70
2024-03-16T01:26:39.108Z,0.70
2024-03-16T01:29:11.689Z,0.80
2024-03-16T01:31:39.644Z,0.70
2024-03-16T01:34:07.404Z,0.67
2024-03-16T01:36:35.279Z,1.10
2024-03-16T01:39:04.524Z,1.33
2024-03-16T01:41:32.279Z,0.80
2024-03-16T01:44:01.585Z,0.70
2024-03-16T01:46:29.315Z,0.80
2024-03-16T01:48:57.137Z,0.80
2024-03-16T01:51:24.952Z,0.80
2024-03-16T01:53:52.694Z,1.70
2024-03-16T01:56:20.497Z,0.70
2024-03-16T01:58:49.936Z,1.03
2024-03-16T02:04:04.602Z,0.80
2024-03-16T02:06:32.518Z,1.20
2024-03-16T02:09:01.455Z,0.70
2024-03-16T02:11:29.449Z,0.80
2024-03-16T02:13:57.300Z,1.83
2024-03-16T02:17:14.104Z,0.80
2024-03-16T02:19:41.851Z,0.73
2024-03-16T02:22:10.031Z,0.80
2024-03-16T02:24:37.913Z,0.70
2024-03-16T02:27:07.175Z,0.60
2024-03-16T02:29:36.990Z,0.60
2024-03-16T02:32:06.924Z,0.80
2024-03-16T02:34:34.904Z,0.70
2024-03-16T02:37:03.169Z,1.50
2024-03-16T02:39:32.796Z,0.70
2024-03-16T02:42:00.566Z,1.17
2024-03-16T02:44:28.396Z,0.70
2024-03-16T02:46:56.186Z,0.80
2024-03-16T02:49:24.002Z,0.70
2024-03-16T02:51:51.745Z,2.20
2024-03-16T02:54:19.523Z,0.60
2024-03-16T02:56:47.309Z,0.80
2024-03-16T02:59:15.076Z,0.70
2024-03-16T03:01:42.979Z,0.70
2024-03-16T03:04:11.044Z,2.23
2024-03-16T03:06:39.383Z,0.87
2024-03-16T03:09:08.503Z,0.60
2024-03-16T03:11:38.659Z,0.63
2024-03-16T03:14:07.652Z,0.70
2024-03-16T03:16:35.807Z,0.80
2024-03-16T03:19:03.683Z,0.70
2024-03-16T03:21:32.731Z,0.70
2024-03-16T03:24:01.209Z,1.00
2024-03-16T03:26:30.356Z,0.70
2024-03-16T03:28:58.790Z,1.90
2024-03-16T03:31:26.564Z,1.00
2024-03-16T03:33:54.451Z,1.13
2024-03-16T03:36:22.226Z,0.70
2024-03-16T03:38:50.171Z,1.90
2024-03-16T03:41:19.506Z,0.70
2024-03-16T03:43:58.507Z,0.80
2024-03-16T03:46:40.976Z,0.70
2024-03-16T03:49:13.229Z,0.87
2024-03-16T03:51:41.056Z,0.70
2024-03-16T03:54:08.840Z,0.80
2024-03-16T03:56:36.668Z,0.80
2024-03-16T03:59:04.478Z,0.70
2024-03-16T04:01:32.455Z,0.80
2024-03-16T04:04:00.408Z,0.70
2024-03-16T04:06:28.353Z,0.80
2024-03-16T04:08:56.502Z,0.90
2024-03-16T04:11:24.289Z,0.83
2024-03-16T04:13:52.050Z,0.97
2024-03-16T04:16:19.899Z,0.73
2024-03-16T04:18:47.781Z,3.03
2024-03-16T04:21:17.910Z,0.70
2024-03-16T04:23:46.014Z,0.70
2024-03-16T04:26:14.057Z,0.93
2024-03-16T04:28:41.803Z,1.20
2024-03-16T04:31:09.627Z,0.80
2024-03-16T04:33:37.541Z,0.70
2024-03-16T04:36:05.816Z,0.93
2024-03-16T04:38:33.597Z,0.70
2024-03-16T04:41:01.377Z,0.80
2024-03-16T04:43:29.130Z,0.90
2024-03-16T04:45:56.976Z,2.43
2024-03-16T04:48:25.240Z,0.80
2024-03-16T04:50:53.046Z,0.93
2024-03-16T04:53:20.788Z,0.90
2024-03-16T04:55:48.542Z,0.90
2024-03-16T04:58:16.411Z,1.97
2024-03-16T05:00:44.330Z,0.80
2024-03-16T05:03:12.227Z,0.80
2024-03-16T05:05:40.001Z,0.80
2024-03-16T05:08:09.271Z,0.70
2024-03-16T05:10:37.039Z,0.70
2024-03-16T05:13:05.956Z,1.03
2024-03-16T05:15:33.762Z,0.70
2024-03-16T05:18:01.599Z,1.40
2024-03-16T05:20:29.378Z,0.70
2024-03-16T05:22:57.193Z,0.90
2024-03-16T05:25:25.039Z,0.77
2024-03-16T05:27:52.897Z,0.70
2024-03-16T05:30:20.984Z,0.70
2024-03-16T05:32:48.859Z,0.80
2024-03-16T05:35:17.223Z,0.80
2024-03-16T05:37:45.003Z,0.73
2024-03-16T05:40:12.905Z,0.70
2024-03-16T05:42:41.043Z,5.20
2024-03-16T05:45:09.305Z,0.80
2024-03-16T05:47:37.521Z,2.10
2024-03-16T05:50:05.702Z,1.17
2024-03-16T05:52:34.794Z,1.33
2024-03-16T05:55:02.694Z,1.20
2024-03-16T05:57:30.624Z,2.13
2024-03-16T05:59:58.432Z,0.90
2024-03-16T06:02:26.356Z,0.90
2024-03-16T06:04:54.182Z,3.53
2024-03-16T06:07:22.064Z,0.97
2024-03-16T06:09:49.909Z,0.90
2024-03-16T06:12:17.980Z,1.13
2024-03-16T06:14:46.927Z,3.83
2024-03-16T06:17:14.680Z,0.87
2024-03-16T06:19:42.958Z,0.73
2024-03-16T06:22:13.129Z,0.80
2024-03-16T06:24:43.004Z,0.93
2024-03-16T06:27:16.104Z,0.80
2024-03-16T06:29:48.916Z,1.03
2024-03-16T06:32:21.336Z,1.63
2024-03-16T06:34:52.691Z,1.40
2024-03-16T06:37:20.859Z,0.97
2024-03-16T06:39:48.717Z,0.90
2024-03-16T06:42:16.962Z,1.77
2024-03-16T06:44:45.316Z,1.20
2024-03-16T06:47:13.554Z,1.10
2024-03-16T06:49:41.669Z,1.10
2024-03-16T06:52:10.646Z,3.30
2024-03-16T06:54:38.709Z,1.70
2024-03-16T06:57:06.652Z,0.80
2024-03-16T06:59:35.333Z,0.80
2024-03-16T07:02:03.289Z,1.17
2024-03-16T07:04:31.186Z,2.27
2024-03-16T07:06:59.156Z,1.73
2024-03-16T07:09:27.023Z,2.73
2024-03-16T07:11:55.071Z,0.80
2024-03-16T07:14:23.279Z,2.03
2024-03-16T07:16:51.213Z,1.27
2024-03-16T07:19:24.213Z,0.80
2024-03-16T07:21:52.547Z,0.73
2024-03-16T07:24:20.548Z,1.10
2024-03-16T07:26:48.359Z,0.93
2024-03-16T07:29:16.363Z,1.92
2024-03-16T07:31:44.157Z,0.60
2024-03-16T07:34:12.297Z,0.80
2024-03-16T07:36:40.236Z,0.67
2024-03-16T07:39:09.785Z,0.97
2024-03-16T07:41:38.073Z,2.63
2024-03-16T07:44:06.060Z,0.90
2024-03-16T07:46:34.221Z,5.15
2024-03-16T07:49:02.211Z,2.88
2024-03-16T07:51:30.889Z,1.42
2024-03-16T07:53:59.260Z,1.00
2024-03-16T07:56:27.304Z,2.33
2024-03-16T07:58:55.148Z,0.85
2024-03-16T08:01:25.249Z,0.60
2024-03-16T08:03:53.480Z,0.70
2024-03-16T08:06:22.299Z,1.48
2024-03-16T08:08:51.067Z,2.60
2024-03-16T08:11:18.968Z,3.08
2024-03-16T08:13:46.859Z,11.85
2024-03-16T08:16:14.777Z,40.53
2024-03-16T08:18:42.547Z,71.28
2024-03-16T08:21:14.097Z,84.63
2024-03-16T08:23:41.938Z,79.13
2024-03-16T08:26:10.471Z,58.72
2024-03-16T08:28:38.474Z,57.33
2024-03-16T08:31:07.075Z,62.97
2024-03-16T08:33:35.367Z,52.72
2024-03-16T08:36:06.899Z,42.50
2024-03-16T08:38:35.055Z,32.63
2024-03-16T08:41:06.683Z,19.38
2024-03-16T08:43:34.827Z,29.75
2024-03-16T08:46:02.787Z,26.50
2024-03-16T08:48:30.609Z,17.42
2024-03-16T08:50:58.810Z,15.05
2024-03-16T08:53:27.434Z,14.13
2024-03-16T08:55:57.981Z,16.48
2024-03-16T08:58:26.731Z,15.05
2024-03-16T09:00:55.021Z,22.92
2024-03-16T09:03:22.967Z,27.17
2024-03-16T09:05:50.795Z,19.73
2024-03-16T09:08:18.675Z,26.38
2024-03-16T09:10:46.780Z,24.73
2024-03-16T09:13:14.797Z,21.38
2024-03-16T09:15:42.723Z,16.13
2024-03-16T09:18:10.925Z,10.93
2024-03-16T09:20:44.016Z,16.60
2024-03-16T09:23:14.708Z,13.60
2024-03-16T09:25:44.913Z,11.65
2024-03-16T09:28:16.079Z,12.93
2024-03-16T09:30:46.188Z,7.25
2024-03-16T09:33:16.411Z,8.68
2024-03-16T09:35:44.462Z,4.65
2024-03-16T09:38:13.258Z,3.17
2024-03-16T09:40:44.195Z,1.45
